sensor_id;sensor_type;location;lat;lon;timestamp;temperature;humidity
10231;DHT22;62604;49.432;8.680;2023-02-03T00:00:45;7.80;99.90
10231;DHT22;62604;49.432;8.680;2023-02-03T00:03:13;7.80;99.90
10231;DHT22;62604;49.432;8.680;2023-02-03T00:05:40;7.80;99.90
10231;DHT22;62604;49.432;8.680;2023-02-03T00:08:08;7.90;99.90
10231;DHT22;62604;49.432;8.680;2023-02-03T00:10:36;7.80;99.90
10231;DHT22;62604;49.432;8.680;2023-02-03T00:13:04;7.80;99.90
10231;DHT22;62604;49.432;8.680;2023-02-03T00:15:31;7.80;99.90
10231;DHT22;62604;49.432;8.680;2023-02-03T00:17:58;7.90;99.90
10231;DHT22;62604;49.432;8.680;2023-02-03T00:20:26;7.80;99.90
10231;DHT22;62604;49.432;8.680;2023-02-03T00:22:53;7.80;99.90
10231;DHT22;62604;49.432;8.680;2023-02-03T00:25:20;7.90;99.90
10231;DHT22;62604;49.432;8.680;2023-02-03T00:27:47;7.80;99.90
10231;DHT22;62604;49.432;8.680;2023-02-03T00:30:14;7.80;99.90
10231;DHT22;62604;49.432;8.680;2023-02-03T00:32:41;7.90;99.90
10231;DHT22;62604;49.432;8.680;2023-02-03T00:35:08;7.90;99.90
10231;DHT22;62604;49.432;8.680;2023-02-03T00:37:36;7.90;99.90
10231;DHT22;62604;49.432;8.680;2023-02-03T00:40:03;7.90;99.90
10231;DHT22;62604;49.432;8.680;2023-02-03T00:42:32;7.80;99.90
10231;DHT22;62604;49.432;8.680;2023-02-03T00:44:59;7.80;99.90
10231;DHT22;62604;49.432;8.680;2023-02-03T00:47:26;7.90;99.90
10231;DHT22;62604;49.432;8.680;2023-02-03T00:49:53;7.90;99.90
10231;DHT22;62604;49.432;8.680;2023-02-03T00:52:20;7.90;99.90
10231;DHT22;62604;49.432;8.680;2023-02-03T00:54:48;7.90;99.90
10231;DHT22;62604;49.432;8.680;2023-02-03T00:57:15;7.90;99.90
10231;DHT22;62604;49.432;8.680;2023-02-03T00:59:42;7.80;99.90
10231;DHT22;62604;49.432;8.680;2023-02-03T01:02:09;7.90;99.90
10231;DHT22;62604;49.432;8.680;2023-02-03T01:04:36;7.90;99.90
10231;DHT22;62604;49.432;8.680;2023-02-03T01:07:02;7.80;99.90
10231;DHT22;62604;49.432;8.680;2023-02-03T01:09:32;7.90;99.90
10231;DHT22;62604;49.432;8.680;2023-02-03T01:12:01;7.80;99.90
10231;DHT22;62604;49.432;8.680;2023-02-03T01:14:28;7.90;99.90
10231;DHT22;62604;49.432;8.680;2023-02-03T01:16:55;7.90;99.90
10231;DHT22;62604;49.432;8.680;2023-02-03T01:19:22;7.90;99.90
10231;DHT22;62604;49.432;8.680;2023-02-03T01:21:49;7.90;99.90
10231;DHT22;62604;49.432;8.680;2023-02-03T01:24:16;7.90;99.90
10231;DHT22;62604;49.432;8.680;2023-02-03T01:26:43;7.90;99.90
10231;DHT22;62604;49.432;8.680;2023-02-03T01:29:12;7.90;99.90
10231;DHT22;62604;49.432;8.680;2023-02-03T01:31:40;7.90;99.90
10231;DHT22;62604;49.432;8.680;2023-02-03T01:34:11;7.90;99.90
10231;DHT22;62604;49.432;8.680;2023-02-03T01:36:38;7.90;99.90
10231;DHT22;62604;49.432;8.680;2023-02-03T01:39:05;7.90;99.90
10231;DHT22;62604;49.432;8.680;2023-02-03T01:41:34;7.90;99.90
10231;DHT22;62604;49.432;8.680;2023-02-03T01:46:47;7.90;99.90
10231;DHT22;62604;49.432;8.680;2023-02-03T01:49:19;7.90;99.90
10231;DHT22;62604;49.432;8.680;2023-02-03T01:51:48;7.90;99.90
10231;DHT22;62604;49.432;8.680;2023-02-03T01:54:19;7.90;99.90
10231;DHT22;62604;49.432;8.680;2023-02-03T01:56:53;7.90;99.90
10231;DHT22;62604;49.432;8.680;2023-02-03T01:59:21;7.80;99.90
10231;DHT22;62604;49.432;8.680;2023-02-03T02:01:51;7.80;99.90
10231;DHT22;62604;49.432;8.680;2023-02-03T02:04:19;7.80;99.90
10231;DHT22;62604;49.432;8.680;2023-02-03T02:06:48;7.80;99.90
10231;DHT22;62604;49.432;8.680;2023-02-03T02:09:16;7.80;99.90
10231;DHT22;62604;49.432;8.680;2023-02-03T02:11:43;7.80;99.90
10231;DHT22;62604;49.432;8.680;2023-02-03T02:14:10;7.80;99.90
10231;DHT22;62604;49.432;8.680;2023-02-03T02:16:43;7.70;99.90
10231;DHT22;62604;49.432;8.680;2023-02-03T02:19:30;7.70;99.90
10231;DHT22;62604;49.432;8.680;2023-02-03T02:22:09;7.70;99.90
10231;DHT22;62604;49.432;8.680;2023-02-03T02:25:29;7.70;99.90
10231;DHT22;62604;49.432;8.680;2023-02-03T02:31:44;7.70;99.90
10231;DHT22;62604;49.432;8.680;2023-02-03T02:34:17;7.70;99.90
10231;DHT22;62604;49.432;8.680;2023-02-03T02:36:54;7.70;99.90
10231;DHT22;62604;49.432;8.680;2023-02-03T02:39:32;7.60;99.90
10231;DHT22;62604;49.432;8.680;2023-02-03T02:42:07;7.60;99.90
10231;DHT22;62604;49.432;8.680;2023-02-03T02:44:40;7.60;99.90
10231;DHT22;62604;49.432;8.680;2023-02-03T02:47:13;7.60;99.90
10231;DHT22;62604;49.432;8.680;2023-02-03T02:49:45;7.60;99.90
10231;DHT22;62604;49.432;8.680;2023-02-03T02:52:15;7.50;99.90
10231;DHT22;62604;49.432;8.680;2023-02-03T02:54:47;7.50;99.90
10231;DHT22;62604;49.432;8.680;2023-02-03T02:57:17;7.50;99.90
10231;DHT22;62604;49.432;8.680;2023-02-03T02:59:45;7.50;99.90
10231;DHT22;62604;49.432;8.680;2023-02-03T03:02:13;7.60;99.90
10231;DHT22;62604;49.432;8.680;2023-02-03T03:04:42;7.60;99.90
10231;DHT22;62604;49.432;8.680;2023-02-03T03:07:13;7.60;99.90
10231;DHT22;62604;49.432;8.680;2023-02-03T03:09:44;7.60;99.90
10231;DHT22;62604;49.432;8.680;2023-02-03T03:12:15;7.50;99.90
10231;DHT22;62604;49.432;8.680;2023-02-03T03:14:46;7.50;99.90
10231;DHT22;62604;49.432;8.680;2023-02-03T03:17:19;7.50;99.90
10231;DHT22;62604;49.432;8.680;2023-02-03T03:19:53;7.50;99.90
10231;DHT22;62604;49.432;8.680;2023-02-03T03:22:29;7.60;99.90
10231;DHT22;62604;49.432;8.680;2023-02-03T03:24:59;7.60;99.90
10231;DHT22;62604;49.432;8.680;2023-02-03T03:27:31;7.60;99.90
10231;DHT22;62604;49.432;8.680;2023-02-03T03:30:01;7.60;99.90
10231;DHT22;62604;49.432;8.680;2023-02-03T03:32:31;7.60;99.90
10231;DHT22;62604;49.432;8.680;2023-02-03T03:34:59;7.60;99.90
10231;DHT22;62604;49.432;8.680;2023-02-03T03:37:33;7.60;99.90
10231;DHT22;62604;49.432;8.680;2023-02-03T03:40:06;7.60;99.90
10231;DHT22;62604;49.432;8.680;2023-02-03T03:42:38;7.60;99.90
10231;DHT22;62604;49.432;8.680;2023-02-03T03:45:08;7.60;99.90
10231;DHT22;62604;49.432;8.680;2023-02-03T03:47:43;7.50;99.90
10231;DHT22;62604;49.432;8.680;2023-02-03T03:50:14;7.50;99.90
10231;DHT22;62604;49.432;8.680;2023-02-03T03:52:43;7.50;99.90
10231;DHT22;62604;49.432;8.680;2023-02-03T03:55:12;7.50;99.90
10231;DHT22;62604;49.432;8.680;2023-02-03T03:57:44;7.40;99.90
10231;DHT22;62604;49.432;8.680;2023-02-03T04:00:16;7.40;99.90
10231;DHT22;62604;49.432;8.680;2023-02-03T04:02:50;7.40;99.90
10231;DHT22;62604;49.432;8.680;2023-02-03T04:05:19;7.30;99.90
10231;DHT22;62604;49.432;8.680;2023-02-03T04:07:47;7.40;99.90
10231;DHT22;62604;49.432;8.680;2023-02-03T04:10:20;7.30;99.90
10231;DHT22;62604;49.432;8.680;2023-02-03T04:12:48;7.30;99.90
10231;DHT22;62604;49.432;8.680;2023-02-03T04:15:15;7.30;99.90
10231;DHT22;62604;49.432;8.680;2023-02-03T04:17:42;7.30;99.90
10231;DHT22;62604;49.432;8.680;2023-02-03T04:20:12;7.30;99.90
10231;DHT22;62604;49.432;8.680;2023-02-03T04:22:39;7.30;99.90
10231;DHT22;62604;49.432;8.680;2023-02-03T04:25:06;7.30;99.90
10231;DHT22;62604;49.432;8.680;2023-02-03T04:27:33;7.30;99.90
10231;DHT22;62604;49.432;8.680;2023-02-03T04:30:00;7.30;99.90
10231;DHT22;62604;49.432;8.680;2023-02-03T04:32:27;7.20;99.90
10231;DHT22;62604;49.432;8.680;2023-02-03T04:34:55;7.30;99.90
10231;DHT22;62604;49.432;8.680;2023-02-03T04:37:24;7.30;99.90
10231;DHT22;62604;49.432;8.680;2023-02-03T04:39:51;7.30;99.90
10231;DHT22;62604;49.432;8.680;2023-02-03T04:42:18;7.30;99.90
10231;DHT22;62604;49.432;8.680;2023-02-03T04:44:45;7.30;99.90
10231;DHT22;62604;49.432;8.680;2023-02-03T04:47:12;7.40;99.90
10231;DHT22;62604;49.432;8.680;2023-02-03T04:49:39;7.40;99.90
10231;DHT22;62604;49.432;8.680;2023-02-03T04:52:06;7.30;99.90
10231;DHT22;62604;49.432;8.680;2023-02-03T04:54:34;7.40;99.90
10231;DHT22;62604;49.432;8.680;2023-02-03T04:57:01;7.40;99.90
10231;DHT22;62604;49.432;8.680;2023-02-03T04:59:28;7.40;99.90
10231;DHT22;62604;49.432;8.680;2023-02-03T05:01:55;7.40;99.90
10231;DHT22;62604;49.432;8.680;2023-02-03T05:04:22;7.40;99.90
10231;DHT22;62604;49.432;8.680;2023-02-03T05:06:49;7.40;99.90
10231;DHT22;62604;49.432;8.680;2023-02-03T05:09:16;7.40;99.90
10231;DHT22;62604;49.432;8.680;2023-02-03T05:11:44;7.40;99.90
10231;DHT22;62604;49.432;8.680;2023-02-03T05:14:11;7.40;99.90
10231;DHT22;62604;49.432;8.680;2023-02-03T05:16:38;7.40;99.90
10231;DHT22;62604;49.432;8.680;2023-02-03T05:19:05;7.40;99.90
10231;DHT22;62604;49.432;8.680;2023-02-03T05:21:33;7.40;99.90
10231;DHT22;62604;49.432;8.680;2023-02-03T05:24:00;7.50;99.90
10231;DHT22;62604;49.432;8.680;2023-02-03T05:26:28;7.50;99.90
10231;DHT22;62604;49.432;8.680;2023-02-03T05:28:56;7.40;99.90
10231;DHT22;62604;49.432;8.680;2023-02-03T05:31:23;7.50;99.90
10231;DHT22;62604;49.432;8.680;2023-02-03T05:33:50;7.60;99.90
10231;DHT22;62604;49.432;8.680;2023-02-03T05:36:17;7.50;99.90
10231;DHT22;62604;49.432;8.680;2023-02-03T05:38:44;7.50;99.90
10231;DHT22;62604;49.432;8.680;2023-02-03T05:41:11;7.50;99.90
10231;DHT22;62604;49.432;8.680;2023-02-03T05:43:57;7.50;99.90
10231;DHT22;62604;49.432;8.680;2023-02-03T05:46:24;7.40;99.90
10231;DHT22;62604;49.432;8.680;2023-02-03T05:48:52;7.40;99.90
10231;DHT22;62604;49.432;8.680;2023-02-03T05:51:18;7.40;99.90
10231;DHT22;62604;49.432;8.680;2023-02-03T05:53:45;7.40;99.90
10231;DHT22;62604;49.432;8.680;2023-02-03T05:56:12;7.40;99.90
10231;DHT22;62604;49.432;8.680;2023-02-03T05:58:39;7.40;99.90
10231;DHT22;62604;49.432;8.680;2023-02-03T06:01:07;7.30;99.90
10231;DHT22;62604;49.432;8.680;2023-02-03T06:03:36;7.40;99.90
10231;DHT22;62604;49.432;8.680;2023-02-03T06:06:03;7.40;99.90
10231;DHT22;62604;49.432;8.680;2023-02-03T06:08:30;7.30;99.90
10231;DHT22;62604;49.432;8.680;2023-02-03T06:10:57;7.30;99.90
10231;DHT22;62604;49.432;8.680;2023-02-03T06:13:25;7.30;99.90
10231;DHT22;62604;49.432;8.680;2023-02-03T06:15:53;7.30;99.90
10231;DHT22;62604;49.432;8.680;2023-02-03T06:18:21;7.30;99.90
10231;DHT22;62604;49.432;8.680;2023-02-03T06:20:48;7.20;99.90
10231;DHT22;62604;49.432;8.680;2023-02-03T06:23:16;7.20;99.90
10231;DHT22;62604;49.432;8.680;2023-02-03T06:25:43;7.20;99.90
10231;DHT22;62604;49.432;8.680;2023-02-03T06:28:10;7.20;99.90
10231;DHT22;62604;49.432;8.680;2023-02-03T06:30:37;7.20;99.90
10231;DHT22;62604;49.432;8.680;2023-02-03T06:33:04;7.20;99.90
10231;DHT22;62604;49.432;8.680;2023-02-03T06:35:32;7.20;99.90
10231;DHT22;62604;49.432;8.680;2023-02-03T06:37:59;7.20;99.90
10231;DHT22;62604;49.432;8.680;2023-02-03T06:40:26;7.20;99.90
10231;DHT22;62604;49.432;8.680;2023-02-03T06:42:53;7.20;99.90
10231;DHT22;62604;49.432;8.680;2023-02-03T06:45:20;7.20;99.90
10231;DHT22;62604;49.432;8.680;2023-02-03T06:47:49;7.20;99.90
10231;DHT22;62604;49.432;8.680;2023-02-03T06:50:16;7.40;99.90
10231;DHT22;62604;49.432;8.680;2023-02-03T06:52:44;7.40;99.90
10231;DHT22;62604;49.432;8.680;2023-02-03T06:55:11;7.40;99.90
10231;DHT22;62604;49.432;8.680;2023-02-03T06:57:43;7.40;99.90
10231;DHT22;62604;49.432;8.680;2023-02-03T07:00:11;7.50;99.90
10231;DHT22;62604;49.432;8.680;2023-02-03T07:02:39;7.70;99.90
10231;DHT22;62604;49.432;8.680;2023-02-03T07:05:06;7.70;99.90
10231;DHT22;62604;49.432;8.680;2023-02-03T07:07:33;7.70;99.90
10231;DHT22;62604;49.432;8.680;2023-02-03T07:10:02;7.70;99.90
10231;DHT22;62604;49.432;8.680;2023-02-03T07:12:29;7.70;99.90
10231;DHT22;62604;49.432;8.680;2023-02-03T07:14:57;7.70;99.90
10231;DHT22;62604;49.432;8.680;2023-02-03T07:17:24;7.60;99.90
10231;DHT22;62604;49.432;8.680;2023-02-03T07:19:51;7.60;99.90
10231;DHT22;62604;49.432;8.680;2023-02-03T07:22:17;7.50;99.90
10231;DHT22;62604;49.432;8.680;2023-02-03T07:24:44;7.40;99.90
10231;DHT22;62604;49.432;8.680;2023-02-03T07:27:13;7.40;99.90
10231;DHT22;62604;49.432;8.680;2023-02-03T07:29:40;7.40;99.90
10231;DHT22;62604;49.432;8.680;2023-02-03T07:32:06;7.40;99.90
10231;DHT22;62604;49.432;8.680;2023-02-03T07:34:34;7.40;99.90
10231;DHT22;62604;49.432;8.680;2023-02-03T07:37:00;7.40;99.90
10231;DHT22;62604;49.432;8.680;2023-02-03T07:39:27;7.40;99.90
10231;DHT22;62604;49.432;8.680;2023-02-03T07:41:54;7.40;99.90
10231;DHT22;62604;49.432;8.680;2023-02-03T07:44:22;7.30;99.90
10231;DHT22;62604;49.432;8.680;2023-02-03T07:46:49;7.40;99.90
10231;DHT22;62604;49.432;8.680;2023-02-03T07:49:16;7.40;99.90
10231;DHT22;62604;49.432;8.680;2023-02-03T07:51:43;7.40;99.90
10231;DHT22;62604;49.432;8.680;2023-02-03T07:54:10;7.40;99.90
10231;DHT22;62604;49.432;8.680;2023-02-03T07:56:37;7.40;99.90
10231;DHT22;62604;49.432;8.680;2023-02-03T07:59:04;7.50;99.90
10231;DHT22;62604;49.432;8.680;2023-02-03T08:01:32;7.40;99.90
10231;DHT22;62604;49.432;8.680;2023-02-03T08:03:59;7.50;99.90
10231;DHT22;62604;49.432;8.680;2023-02-03T08:06:29;7.40;99.90
10231;DHT22;62604;49.432;8.680;2023-02-03T08:08:56;7.50;99.90
10231;DHT22;62604;49.432;8.680;2023-02-03T08:11:23;7.50;99.90
10231;DHT22;62604;49.432;8.680;2023-02-03T08:13:50;7.40;99.90
10231;DHT22;62604;49.432;8.680;2023-02-03T08:16:17;7.50;99.90
10231;DHT22;62604;49.432;8.680;2023-02-03T08:18:45;7.40;99.90
10231;DHT22;62604;49.432;8.680;2023-02-03T08:21:12;7.50;99.90
10231;DHT22;62604;49.432;8.680;2023-02-03T08:23:39;7.50;99.90
10231;DHT22;62604;49.432;8.680;2023-02-03T08:26:06;7.50;99.90
10231;DHT22;62604;49.432;8.680;2023-02-03T08:28:33;7.50;99.90
10231;DHT22;62604;49.432;8.680;2023-02-03T08:31:00;7.50;99.90
10231;DHT22;62604;49.432;8.680;2023-02-03T08:33:26;7.50;99.90
10231;DHT22;62604;49.432;8.680;2023-02-03T08:35:55;7.60;99.90
10231;DHT22;62604;49.432;8.680;2023-02-03T08:38:23;7.60;99.90
10231;DHT22;62604;49.432;8.680;2023-02-03T08:40:50;7.60;99.90
10231;DHT22;62604;49.432;8.680;2023-02-03T08:43:17;7.70;99.90
10231;DHT22;62604;49.432;8.680;2023-02-03T08:45:43;7.70;99.90
10231;DHT22;62604;49.432;8.680;2023-02-03T08:48:10;7.80;99.90
10231;DHT22;62604;49.432;8.680;2023-02-03T08:50:40;7.80;99.90
10231;DHT22;62604;49.432;8.680;2023-02-03T08:53:10;7.80;99.90
10231;DHT22;62604;49.432;8.680;2023-02-03T08:55:38;7.90;99.90
10231;DHT22;62604;49.432;8.680;2023-02-03T08:58:05;7.90;99.90
10231;DHT22;62604;49.432;8.680;2023-02-03T09:00:32;7.90;99.90
10231;DHT22;62604;49.432;8.680;2023-02-03T09:02:59;7.90;99.90
10231;DHT22;62604;49.432;8.680;2023-02-03T09:05:26;7.90;99.90
10231;DHT22;62604;49.432;8.680;2023-02-03T09:07:53;7.90;99.90
10231;DHT22;62604;49.432;8.680;2023-02-03T09:10:21;8.00;99.90
10231;DHT22;62604;49.432;8.680;2023-02-03T09:12:48;8.10;99.90
10231;DHT22;62604;49.432;8.680;2023-02-03T09:15:15;8.20;99.90
10231;DHT22;62604;49.432;8.680;2023-02-03T09:17:42;8.10;99.90
10231;DHT22;62604;49.432;8.680;2023-02-03T09:20:10;8.10;99.90
10231;DHT22;62604;49.432;8.680;2023-02-03T09:22:37;8.10;99.90
10231;DHT22;62604;49.432;8.680;2023-02-03T09:25:05;8.10;99.90
10231;DHT22;62604;49.432;8.680;2023-02-03T09:27:34;8.00;99.90
10231;DHT22;62604;49.432;8.680;2023-02-03T09:30:00;8.00;99.90
10231;DHT22;62604;49.432;8.680;2023-02-03T09:32:28;8.00;99.90
10231;DHT22;62604;49.432;8.680;2023-02-03T09:34:54;8.00;99.90
10231;DHT22;62604;49.432;8.680;2023-02-03T09:37:21;8.00;99.90
10231;DHT22;62604;49.432;8.680;2023-02-03T09:39:48;8.00;99.90
10231;DHT22;62604;49.432;8.680;2023-02-03T09:42:39;8.00;99.90
10231;DHT22;62604;49.432;8.680;2023-02-03T09:45:13;8.00;99.90
10231;DHT22;62604;49.432;8.680;2023-02-03T09:47:43;8.00;99.90
10231;DHT22;62604;49.432;8.680;2023-02-03T09:50:14;8.00;99.90
10231;DHT22;62604;49.432;8.680;2023-02-03T09:52:44;8.00;99.90
10231;DHT22;62604;49.432;8.680;2023-02-03T09:55:26;8.10;99.90
10231;DHT22;62604;49.432;8.680;2023-02-03T09:58:00;8.10;99.90
10231;DHT22;62604;49.432;8.680;2023-02-03T10:00:33;8.10;99.90
10231;DHT22;62604;49.432;8.680;2023-02-03T10:03:06;8.10;99.90
10231;DHT22;62604;49.432;8.680;2023-02-03T10:05:46;8.10;99.90
10231;DHT22;62604;49.432;8.680;2023-02-03T10:08:21;8.10;99.90
10231;DHT22;62604;49.432;8.680;2023-02-03T10:10:56;8.10;99.90
10231;DHT22;62604;49.432;8.680;2023-02-03T10:13:42;8.00;99.90
10231;DHT22;62604;49.432;8.680;2023-02-03T10:19:10;8.10;99.90
10231;DHT22;62604;49.432;8.680;2023-02-03T10:21:41;8.10;99.90
10231;DHT22;62604;49.432;8.680;2023-02-03T10:24:12;8.10;99.90
10231;DHT22;62604;49.432;8.680;2023-02-03T10:26:41;8.20;99.90
10231;DHT22;62604;49.432;8.680;2023-02-03T10:29:18;8.10;99.90
10231;DHT22;62604;49.432;8.680;2023-02-03T10:31:45;8.20;99.90
10231;DHT22;62604;49.432;8.680;2023-02-03T10:34:15;8.30;99.90
10231;DHT22;62604;49.432;8.680;2023-02-03T10:36:54;8.30;99.90
10231;DHT22;62604;49.432;8.680;2023-02-03T10:39:30;8.40;99.90
10231;DHT22;62604;49.432;8.680;2023-02-03T10:41:58;8.50;99.90
10231;DHT22;62604;49.432;8.680;2023-02-03T10:44:32;8.40;99.90
10231;DHT22;62604;49.432;8.680;2023-02-03T10:47:00;8.40;99.90
10231;DHT22;62604;49.432;8.680;2023-02-03T10:49:27;8.40;99.90
10231;DHT22;62604;49.432;8.680;2023-02-03T10:52:00;8.40;99.90
10231;DHT22;62604;49.432;8.680;2023-02-03T10:54:31;8.50;99.90
10231;DHT22;62604;49.432;8.680;2023-02-03T10:57:02;8.50;99.90
10231;DHT22;62604;49.432;8.680;2023-02-03T10:59:33;8.50;99.90
10231;DHT22;62604;49.432;8.680;2023-02-03T11:02:07;8.50;99.90
10231;DHT22;62604;49.432;8.680;2023-02-03T11:04:35;8.40;99.90
10231;DHT22;62604;49.432;8.680;2023-02-03T11:07:04;8.40;99.90
10231;DHT22;62604;49.432;8.680;2023-02-03T11:09:34;8.40;99.90
10231;DHT22;62604;49.432;8.680;2023-02-03T11:12:12;8.50;99.90
10231;DHT22;62604;49.432;8.680;2023-02-03T11:14:41;8.50;99.90
10231;DHT22;62604;49.432;8.680;2023-02-03T11:17:15;8.50;99.90
10231;DHT22;62604;49.432;8.680;2023-02-03T11:19:43;8.50;99.90
10231;DHT22;62604;49.432;8.680;2023-02-03T11:22:12;8.50;99.90
10231;DHT22;62604;49.432;8.680;2023-02-03T11:24:41;8.50;99.90
10231;DHT22;62604;49.432;8.680;2023-02-03T11:27:12;8.50;99.90
10231;DHT22;62604;49.432;8.680;2023-02-03T11:29:44;8.50;99.90
10231;DHT22;62604;49.432;8.680;2023-02-03T11:32:17;8.50;99.90
10231;DHT22;62604;49.432;8.680;2023-02-03T11:34:48;8.50;99.90
10231;DHT22;62604;49.432;8.680;2023-02-03T11:37:28;8.50;99.90
10231;DHT22;62604;49.432;8.680;2023-02-03T11:40:21;8.50;99.90
10231;DHT22;62604;49.432;8.680;2023-02-03T11:43:00;8.60;99.90
10231;DHT22;62604;49.432;8.680;2023-02-03T11:45:35;8.50;99.90
10231;DHT22;62604;49.432;8.680;2023-02-03T11:48:14;8.50;99.90
10231;DHT22;62604;49.432;8.680;2023-02-03T11:50:45;8.50;99.90
10231;DHT22;62604;49.432;8.680;2023-02-03T11:53:24;8.50;99.90
10231;DHT22;62604;49.432;8.680;2023-02-03T11:56:12;8.50;99.90
10231;DHT22;62604;49.432;8.680;2023-02-03T11:59:02;8.50;99.90
10231;DHT22;62604;49.432;8.680;2023-02-03T12:04:44;8.60;99.90
10231;DHT22;62604;49.432;8.680;2023-02-03T12:07:40;8.60;99.90
10231;DHT22;62604;49.432;8.680;2023-02-03T12:10:23;8.50;99.90
10231;DHT22;62604;49.432;8.680;2023-02-03T12:12:57;8.60;99.90
10231;DHT22;62604;49.432;8.680;2023-02-03T12:15:45;8.50;99.90
10231;DHT22;62604;49.432;8.680;2023-02-03T12:18:25;8.50;99.90
10231;DHT22;62604;49.432;8.680;2023-02-03T12:21:07;8.40;99.90
10231;DHT22;62604;49.432;8.680;2023-02-03T12:23:46;8.40;99.90
10231;DHT22;62604;49.432;8.680;2023-02-03T12:26:20;8.40;99.90
10231;DHT22;62604;49.432;8.680;2023-02-03T12:28:53;8.40;99.90
10231;DHT22;62604;49.432;8.680;2023-02-03T12:31:29;8.40;99.90
10231;DHT22;62604;49.432;8.680;2023-02-03T12:34:05;8.40;99.90
10231;DHT22;62604;49.432;8.680;2023-02-03T12:36:39;8.50;99.90
10231;DHT22;62604;49.432;8.680;2023-02-03T12:39:15;8.50;99.90
10231;DHT22;62604;49.432;8.680;2023-02-03T12:41:48;8.60;99.90
10231;DHT22;62604;49.432;8.680;2023-02-03T12:44:19;8.70;99.90
10231;DHT22;62604;49.432;8.680;2023-02-03T12:46:52;8.70;99.90
10231;DHT22;62604;49.432;8.680;2023-02-03T12:49:30;8.70;99.90
10231;DHT22;62604;49.432;8.680;2023-02-03T12:52:05;8.80;99.90
10231;DHT22;62604;49.432;8.680;2023-02-03T12:54:42;8.80;99.90
10231;DHT22;62604;49.432;8.680;2023-02-03T12:57:19;8.80;99.90
10231;DHT22;62604;49.432;8.680;2023-02-03T12:59:58;8.90;99.90
10231;DHT22;62604;49.432;8.680;2023-02-03T13:02:31;8.90;99.90
10231;DHT22;62604;49.432;8.680;2023-02-03T13:05:08;9.00;99.90
10231;DHT22;62604;49.432;8.680;2023-02-03T13:07:45;9.10;99.90
10231;DHT22;62604;49.432;8.680;2023-02-03T13:10:18;9.20;99.90
10231;DHT22;62604;49.432;8.680;2023-02-03T13:12:57;9.20;99.90
10231;DHT22;62604;49.432;8.680;2023-02-03T13:15:27;9.20;99.90
10231;DHT22;62604;49.432;8.680;2023-02-03T13:18:00;9.20;99.90
10231;DHT22;62604;49.432;8.680;2023-02-03T13:20:31;9.20;99.90
10231;DHT22;62604;49.432;8.680;2023-02-03T13:23:02;9.20;99.90
10231;DHT22;62604;49.432;8.680;2023-02-03T13:25:37;9.30;99.90
10231;DHT22;62604;49.432;8.680;2023-02-03T13:28:13;9.20;99.90
10231;DHT22;62604;49.432;8.680;2023-02-03T13:31:11;9.20;99.90
10231;DHT22;62604;49.432;8.680;2023-02-03T13:34:05;9.20;99.90
10231;DHT22;62604;49.432;8.680;2023-02-03T13:39:45;9.20;99.90
10231;DHT22;62604;49.432;8.680;2023-02-03T13:42:22;9.30;99.90
10231;DHT22;62604;49.432;8.680;2023-02-03T13:44:54;9.20;99.90
10231;DHT22;62604;49.432;8.680;2023-02-03T13:47:24;9.20;99.90
10231;DHT22;62604;49.432;8.680;2023-02-03T13:49:54;9.20;99.90
10231;DHT22;62604;49.432;8.680;2023-02-03T13:52:29;9.20;99.90
10231;DHT22;62604;49.432;8.680;2023-02-03T13:54:57;9.20;99.90
10231;DHT22;62604;49.432;8.680;2023-02-03T13:57:31;9.20;99.90
10231;DHT22;62604;49.432;8.680;2023-02-03T14:00:01;9.20;99.90
10231;DHT22;62604;49.432;8.680;2023-02-03T14:05:37;9.30;99.90
10231;DHT22;62604;49.432;8.680;2023-02-03T14:11:42;9.30;99.90
10231;DHT22;62604;49.432;8.680;2023-02-03T14:14:44;9.30;99.90
10231;DHT22;62604;49.432;8.680;2023-02-03T14:20:56;9.30;99.90
10231;DHT22;62604;49.432;8.680;2023-02-03T14:23:33;9.30;99.90
10231;DHT22;62604;49.432;8.680;2023-02-03T14:26:04;9.30;99.90
10231;DHT22;62604;49.432;8.680;2023-02-03T14:28:39;9.30;99.90
10231;DHT22;62604;49.432;8.680;2023-02-03T14:31:12;9.40;99.90
10231;DHT22;62604;49.432;8.680;2023-02-03T14:33:53;9.40;99.90
10231;DHT22;62604;49.432;8.680;2023-02-03T14:36:34;9.40;99.90
10231;DHT22;62604;49.432;8.680;2023-02-03T14:39:04;9.40;99.90
10231;DHT22;62604;49.432;8.680;2023-02-03T14:41:54;9.40;99.90
10231;DHT22;62604;49.432;8.680;2023-02-03T14:44:30;9.40;99.90
10231;DHT22;62604;49.432;8.680;2023-02-03T14:47:09;9.40;99.90
10231;DHT22;62604;49.432;8.680;2023-02-03T14:49:46;9.40;99.90
10231;DHT22;62604;49.432;8.680;2023-02-03T14:52:27;9.40;99.90
10231;DHT22;62604;49.432;8.680;2023-02-03T14:55:12;9.40;99.90
10231;DHT22;62604;49.432;8.680;2023-02-03T14:57:43;9.30;99.90
10231;DHT22;62604;49.432;8.680;2023-02-03T15:00:29;9.40;99.90
10231;DHT22;62604;49.432;8.680;2023-02-03T15:03:19;9.40;99.90
10231;DHT22;62604;49.432;8.680;2023-02-03T15:05:49;9.40;99.90
10231;DHT22;62604;49.432;8.680;2023-02-03T15:08:40;9.30;99.90
10231;DHT22;62604;49.432;8.680;2023-02-03T15:11:22;9.40;99.90
10231;DHT22;62604;49.432;8.680;2023-02-03T15:13:52;9.40;99.90
10231;DHT22;62604;49.432;8.680;2023-02-03T15:16:22;9.40;99.90
10231;DHT22;62604;49.432;8.680;2023-02-03T15:18:54;9.40;99.90
10231;DHT22;62604;49.432;8.680;2023-02-03T15:21:22;9.30;99.90
10231;DHT22;62604;49.432;8.680;2023-02-03T15:23:49;9.30;99.90
10231;DHT22;62604;49.432;8.680;2023-02-03T15:26:18;9.30;99.90
10231;DHT22;62604;49.432;8.680;2023-02-03T15:28:55;9.30;99.90
10231;DHT22;62604;49.432;8.680;2023-02-03T15:31:28;9.30;99.90
10231;DHT22;62604;49.432;8.680;2023-02-03T15:34:03;9.30;99.90
10231;DHT22;62604;49.432;8.680;2023-02-03T15:36:36;9.30;99.90
10231;DHT22;62604;49.432;8.680;2023-02-03T15:39:18;9.30;99.90
10231;DHT22;62604;49.432;8.680;2023-02-03T15:41:48;9.30;99.90
10231;DHT22;62604;49.432;8.680;2023-02-03T15:44:26;9.30;99.90
10231;DHT22;62604;49.432;8.680;2023-02-03T15:46:56;9.30;99.90
10231;DHT22;62604;49.432;8.680;2023-02-03T15:49:26;9.20;99.90
10231;DHT22;62604;49.432;8.680;2023-02-03T15:51:56;9.20;99.90
10231;DHT22;62604;49.432;8.680;2023-02-03T15:54:28;9.20;99.90
10231;DHT22;62604;49.432;8.680;2023-02-03T15:57:07;9.20;99.90
10231;DHT22;62604;49.432;8.680;2023-02-03T15:59:37;9.20;99.90
10231;DHT22;62604;49.432;8.680;2023-02-03T16:02:14;9.20;99.90
10231;DHT22;62604;49.432;8.680;2023-02-03T16:04:42;9.20;99.90
10231;DHT22;62604;49.432;8.680;2023-02-03T16:07:15;9.20;99.90
10231;DHT22;62604;49.432;8.680;2023-02-03T16:09:42;9.10;99.90
10231;DHT22;62604;49.432;8.680;2023-02-03T16:12:17;9.10;99.90
10231;DHT22;62604;49.432;8.680;2023-02-03T16:14:44;9.00;99.90
10231;DHT22;62604;49.432;8.680;2023-02-03T16:17:34;9.00;99.90
10231;DHT22;62604;49.432;8.680;2023-02-03T16:20:20;9.00;99.90
10231;DHT22;62604;49.432;8.680;2023-02-03T16:23:03;8.90;99.90
10231;DHT22;62604;49.432;8.680;2023-02-03T16:25:33;8.90;99.90
10231;DHT22;62604;49.432;8.680;2023-02-03T16:28:03;8.90;99.90
10231;DHT22;62604;49.432;8.680;2023-02-03T16:30:56;8.90;99.90
10231;DHT22;62604;49.432;8.680;2023-02-03T16:33:45;8.90;99.90
10231;DHT22;62604;49.432;8.680;2023-02-03T16:36:29;8.90;99.90